sensor_id;sensor_type;location;lat;lon;timestamp;temperature;humidity
20125;DHT22;10223;50.862;4.360;2023-02-28T00:00:28;3.60;99.90
20125;DHT22;10223;50.862;4.360;2023-02-28T00:02:55;3.50;99.90
20125;DHT22;10223;50.862;4.360;2023-02-28T00:05:23;3.40;99.90
20125;DHT22;10223;50.862;4.360;2023-02-28T00:07:51;3.50;99.90
20125;DHT22;10223;50.862;4.360;2023-02-28T00:10:19;3.40;99.90
20125;DHT22;10223;50.862;4.360;2023-02-28T00:12:50;3.30;99.90
20125;DHT22;10223;50.862;4.360;2023-02-28T00:15:18;3.10;99.90
20125;DHT22;10223;50.862;4.360;2023-02-28T00:17:45;3.20;99.90
20125;DHT22;10223;50.862;4.360;2023-02-28T00:20:13;3.20;99.90
20125;DHT22;10223;50.862;4.360;2023-02-28T00:22:42;3.30;99.90
20125;DHT22;10223;50.862;4.360;2023-02-28T00:25:11;3.40;99.90
20125;DHT22;10223;50.862;4.360;2023-02-28T00:27:39;3.40;99.90
20125;DHT22;10223;50.862;4.360;2023-02-28T00:30:10;3.40;99.90
20125;DHT22;10223;50.862;4.360;2023-02-28T00:32:37;3.30;99.90
20125;DHT22;10223;50.862;4.360;2023-02-28T00:35:06;3.30;99.90
20125;DHT22;10223;50.862;4.360;2023-02-28T00:37:33;3.10;99.90
20125;DHT22;10223;50.862;4.360;2023-02-28T00:40:00;3.10;99.90
20125;DHT22;10223;50.862;4.360;2023-02-28T00:42:30;3.20;99.90
20125;DHT22;10223;50.862;4.360;2023-02-28T00:44:57;3.20;99.90
20125;DHT22;10223;50.862;4.360;2023-02-28T00:47:25;3.10;99.90
20125;DHT22;10223;50.862;4.360;2023-02-28T00:49:52;3.20;99.90
20125;DHT22;10223;50.862;4.360;2023-02-28T00:52:19;3.30;99.90
20125;DHT22;10223;50.862;4.360;2023-02-28T00:54:46;3.20;99.90
20125;DHT22;10223;50.862;4.360;2023-02-28T00:57:13;3.30;99.90
20125;DHT22;10223;50.862;4.360;2023-02-28T00:59:40;3.30;99.90
20125;DHT22;10223;50.862;4.360;2023-02-28T01:02:07;3.30;99.90
20125;DHT22;10223;50.862;4.360;2023-02-28T01:04:35;3.20;99.90
20125;DHT22;10223;50.862;4.360;2023-02-28T01:07:02;3.20;99.90
20125;DHT22;10223;50.862;4.360;2023-02-28T01:09:29;3.20;99.90
20125;DHT22;10223;50.862;4.360;2023-02-28T01:11:56;3.00;99.90
20125;DHT22;10223;50.862;4.360;2023-02-28T01:14:23;2.70;99.90
20125;DHT22;10223;50.862;4.360;2023-02-28T01:16:50;2.70;99.90
20125;DHT22;10223;50.862;4.360;2023-02-28T01:19:17;2.70;99.90
20125;DHT22;10223;50.862;4.360;2023-02-28T01:21:45;2.60;99.90
20125;DHT22;10223;50.862;4.360;2023-02-28T01:24:13;2.50;99.90
20125;DHT22;10223;50.862;4.360;2023-02-28T01:26:40;2.40;99.90
20125;DHT22;10223;50.862;4.360;2023-02-28T01:29:07;2.40;99.90
20125;DHT22;10223;50.862;4.360;2023-02-28T01:31:34;2.20;99.90
20125;DHT22;10223;50.862;4.360;2023-02-28T01:34:01;2.30;99.90
20125;DHT22;10223;50.862;4.360;2023-02-28T01:36:28;2.50;99.90
20125;DHT22;10223;50.862;4.360;2023-02-28T01:38:56;2.20;99.90
20125;DHT22;10223;50.862;4.360;2023-02-28T01:41:25;2.20;99.90
20125;DHT22;10223;50.862;4.360;2023-02-28T01:43:55;2.20;99.90
20125;DHT22;10223;50.862;4.360;2023-02-28T01:46:23;2.20;99.90
20125;DHT22;10223;50.862;4.360;2023-02-28T01:48:52;2.40;99.90
20125;DHT22;10223;50.862;4.360;2023-02-28T01:51:22;2.50;99.90
20125;DHT22;10223;50.862;4.360;2023-02-28T01:53:53;2.60;99.90
20125;DHT22;10223;50.862;4.360;2023-02-28T01:56:27;2.70;99.90
20125;DHT22;10223;50.862;4.360;2023-02-28T01:58:56;2.70;99.90
20125;DHT22;10223;50.862;4.360;2023-02-28T02:01:25;2.70;99.90
20125;DHT22;10223;50.862;4.360;2023-02-28T02:03:54;2.70;99.90
20125;DHT22;10223;50.862;4.360;2023-02-28T02:06:22;2.60;99.90
20125;DHT22;10223;50.862;4.360;2023-02-28T02:08:49;2.70;99.90
20125;DHT22;10223;50.862;4.360;2023-02-28T02:11:18;2.70;99.90
20125;DHT22;10223;50.862;4.360;2023-02-28T02:14:05;2.70;99.90
20125;DHT22;10223;50.862;4.360;2023-02-28T02:16:44;2.70;99.90
20125;DHT22;10223;50.862;4.360;2023-02-28T02:19:39;2.70;99.90
20125;DHT22;10223;50.862;4.360;2023-02-28T02:25:14;2.60;99.90
20125;DHT22;10223;50.862;4.360;2023-02-28T02:28:00;2.60;99.90
20125;DHT22;10223;50.862;4.360;2023-02-28T02:30:46;2.50;99.90
20125;DHT22;10223;50.862;4.360;2023-02-28T02:36:23;2.50;99.90
20125;DHT22;10223;50.862;4.360;2023-02-28T02:38:54;2.50;99.90
20125;DHT22;10223;50.862;4.360;2023-02-28T02:41:28;2.40;99.90
20125;DHT22;10223;50.862;4.360;2023-02-28T02:44:02;2.30;99.90
20125;DHT22;10223;50.862;4.360;2023-02-28T02:46:33;2.10;99.90
20125;DHT22;10223;50.862;4.360;2023-02-28T02:49:04;2.00;99.90
20125;DHT22;10223;50.862;4.360;2023-02-28T02:51:35;1.90;99.90
20125;DHT22;10223;50.862;4.360;2023-02-28T02:54:07;1.90;99.90
20125;DHT22;10223;50.862;4.360;2023-02-28T02:56:36;1.80;99.90
20125;DHT22;10223;50.862;4.360;2023-02-28T02:59:07;1.80;99.90
20125;DHT22;10223;50.862;4.360;2023-02-28T03:01:35;1.90;99.90
20125;DHT22;10223;50.862;4.360;2023-02-28T03:04:06;2.00;99.90
20125;DHT22;10223;50.862;4.360;2023-02-28T03:06:36;2.10;99.90
20125;DHT22;10223;50.862;4.360;2023-02-28T03:09:03;2.10;99.90
20125;DHT22;10223;50.862;4.360;2023-02-28T03:11:31;2.10;99.90
20125;DHT22;10223;50.862;4.360;2023-02-28T03:14:14;2.10;99.90
20125;DHT22;10223;50.862;4.360;2023-02-28T03:17:00;1.90;99.90
20125;DHT22;10223;50.862;4.360;2023-02-28T03:19:47;1.90;99.90
20125;DHT22;10223;50.862;4.360;2023-02-28T03:25:20;1.90;99.90
20125;DHT22;10223;50.862;4.360;2023-02-28T03:27:55;1.90;99.90
20125;DHT22;10223;50.862;4.360;2023-02-28T03:30:33;1.70;99.90
20125;DHT22;10223;50.862;4.360;2023-02-28T03:33:05;1.60;99.90
20125;DHT22;10223;50.862;4.360;2023-02-28T03:35:37;1.60;99.90
20125;DHT22;10223;50.862;4.360;2023-02-28T03:38:09;1.60;99.90
20125;DHT22;10223;50.862;4.360;2023-02-28T03:40:44;1.70;99.90
20125;DHT22;10223;50.862;4.360;2023-02-28T03:43:17;1.70;99.90
20125;DHT22;10223;50.862;4.360;2023-02-28T03:45:46;1.90;99.90
20125;DHT22;10223;50.862;4.360;2023-02-28T03:48:18;2.00;99.90
20125;DHT22;10223;50.862;4.360;2023-02-28T03:50:48;2.10;99.90
20125;DHT22;10223;50.862;4.360;2023-02-28T03:53:21;2.10;99.90
20125;DHT22;10223;50.862;4.360;2023-02-28T03:55:52;2.20;99.90
20125;DHT22;10223;50.862;4.360;2023-02-28T03:58:24;2.20;99.90
20125;DHT22;10223;50.862;4.360;2023-02-28T04:00:56;2.20;99.90
20125;DHT22;10223;50.862;4.360;2023-02-28T04:03:25;2.30;99.90
20125;DHT22;10223;50.862;4.360;2023-02-28T04:05:54;2.20;99.90
20125;DHT22;10223;50.862;4.360;2023-02-28T04:08:22;2.10;99.90
20125;DHT22;10223;50.862;4.360;2023-02-28T04:10:53;2.00;99.90
20125;DHT22;10223;50.862;4.360;2023-02-28T04:13:20;1.80;99.90
20125;DHT22;10223;50.862;4.360;2023-02-28T04:15:47;1.80;99.90
20125;DHT22;10223;50.862;4.360;2023-02-28T04:18:14;1.80;99.90
20125;DHT22;10223;50.862;4.360;2023-02-28T04:20:41;1.80;99.90
20125;DHT22;10223;50.862;4.360;2023-02-28T04:23:08;1.70;99.90
20125;DHT22;10223;50.862;4.360;2023-02-28T04:25:36;1.90;99.90
20125;DHT22;10223;50.862;4.360;2023-02-28T04:28:03;2.00;99.90
20125;DHT22;10223;50.862;4.360;2023-02-28T04:30:30;2.00;99.90
20125;DHT22;10223;50.862;4.360;2023-02-28T04:32:58;2.10;99.90
20125;DHT22;10223;50.862;4.360;2023-02-28T04:35:24;2.10;99.90
20125;DHT22;10223;50.862;4.360;2023-02-28T04:37:51;2.30;99.90
20125;DHT22;10223;50.862;4.360;2023-02-28T04:40:18;2.30;99.90
20125;DHT22;10223;50.862;4.360;2023-02-28T04:42:47;2.20;99.90
20125;DHT22;10223;50.862;4.360;2023-02-28T04:45:13;2.10;99.90
20125;DHT22;10223;50.862;4.360;2023-02-28T04:47:40;2.00;99.90
20125;DHT22;10223;50.862;4.360;2023-02-28T04:50:08;2.10;99.90
20125;DHT22;10223;50.862;4.360;2023-02-28T04:52:35;2.10;99.90
20125;DHT22;10223;50.862;4.360;2023-02-28T04:55:03;1.90;99.90
20125;DHT22;10223;50.862;4.360;2023-02-28T04:57:31;1.70;99.90
20125;DHT22;10223;50.862;4.360;2023-02-28T04:59:59;1.70;99.90
20125;DHT22;10223;50.862;4.360;2023-02-28T05:02:26;1.80;99.90
20125;DHT22;10223;50.862;4.360;2023-02-28T05:04:52;1.50;99.90
20125;DHT22;10223;50.862;4.360;2023-02-28T05:07:19;1.40;99.90
20125;DHT22;10223;50.862;4.360;2023-02-28T05:09:46;1.20;99.90
20125;DHT22;10223;50.862;4.360;2023-02-28T05:12:13;1.40;99.90
20125;DHT22;10223;50.862;4.360;2023-02-28T05:14:40;1.40;99.90
20125;DHT22;10223;50.862;4.360;2023-02-28T05:17:08;1.60;99.90
20125;DHT22;10223;50.862;4.360;2023-02-28T05:19:35;1.80;99.90
20125;DHT22;10223;50.862;4.360;2023-02-28T05:22:02;1.80;99.90
20125;DHT22;10223;50.862;4.360;2023-02-28T05:24:29;1.70;99.90
20125;DHT22;10223;50.862;4.360;2023-02-28T05:26:56;1.80;99.90
20125;DHT22;10223;50.862;4.360;2023-02-28T05:29:23;1.80;99.90
20125;DHT22;10223;50.862;4.360;2023-02-28T05:31:50;1.80;99.90
20125;DHT22;10223;50.862;4.360;2023-02-28T05:34:18;2.00;99.90
20125;DHT22;10223;50.862;4.360;2023-02-28T05:36:45;2.10;99.90
20125;DHT22;10223;50.862;4.360;2023-02-28T05:39:12;2.20;99.90
20125;DHT22;10223;50.862;4.360;2023-02-28T05:41:40;2.10;99.90
20125;DHT22;10223;50.862;4.360;2023-02-28T05:44:07;2.10;99.90
20125;DHT22;10223;50.862;4.360;2023-02-28T05:46:34;2.20;99.90
20125;DHT22;10223;50.862;4.360;2023-02-28T05:49:01;2.10;99.90
20125;DHT22;10223;50.862;4.360;2023-02-28T05:51:30;2.10;99.90
20125;DHT22;10223;50.862;4.360;2023-02-28T05:53:59;2.10;99.90
20125;DHT22;10223;50.862;4.360;2023-02-28T05:56:26;2.00;99.90
20125;DHT22;10223;50.862;4.360;2023-02-28T05:58:53;2.10;99.90
20125;DHT22;10223;50.862;4.360;2023-02-28T06:01:23;2.10;99.90
20125;DHT22;10223;50.862;4.360;2023-02-28T06:03:51;2.30;99.90
20125;DHT22;10223;50.862;4.360;2023-02-28T06:06:18;2.00;99.90
20125;DHT22;10223;50.862;4.360;2023-02-28T06:08:46;1.80;99.90
20125;DHT22;10223;50.862;4.360;2023-02-28T06:11:13;1.60;99.90
20125;DHT22;10223;50.862;4.360;2023-02-28T06:13:40;1.30;99.90
20125;DHT22;10223;50.862;4.360;2023-02-28T06:16:08;1.50;99.90
20125;DHT22;10223;50.862;4.360;2023-02-28T06:18:35;1.60;99.90
20125;DHT22;10223;50.862;4.360;2023-02-28T06:21:03;1.70;99.90
20125;DHT22;10223;50.862;4.360;2023-02-28T06:23:29;1.90;99.90
20125;DHT22;10223;50.862;4.360;2023-02-28T06:25:58;2.00;99.90
20125;DHT22;10223;50.862;4.360;2023-02-28T06:28:25;2.10;99.90
20125;DHT22;10223;50.862;4.360;2023-02-28T06:30:52;2.10;99.90
20125;DHT22;10223;50.862;4.360;2023-02-28T06:33:19;2.10;99.90
20125;DHT22;10223;50.862;4.360;2023-02-28T06:35:46;2.20;99.90
20125;DHT22;10223;50.862;4.360;2023-02-28T06:38:13;2.10;99.90
20125;DHT22;10223;50.862;4.360;2023-02-28T06:40:40;1.90;99.90
20125;DHT22;10223;50.862;4.360;2023-02-28T06:43:09;2.00;99.90
20125;DHT22;10223;50.862;4.360;2023-02-28T06:45:42;2.20;99.90
20125;DHT22;10223;50.862;4.360;2023-02-28T06:48:09;2.30;99.90
20125;DHT22;10223;50.862;4.360;2023-02-28T06:50:36;2.30;99.90
20125;DHT22;10223;50.862;4.360;2023-02-28T06:53:03;2.40;99.90
20125;DHT22;10223;50.862;4.360;2023-02-28T06:55:30;2.40;99.90
20125;DHT22;10223;50.862;4.360;2023-02-28T06:57:57;2.40;99.90
20125;DHT22;10223;50.862;4.360;2023-02-28T07:00:25;2.40;99.90
20125;DHT22;10223;50.862;4.360;2023-02-28T07:02:52;2.50;99.90
20125;DHT22;10223;50.862;4.360;2023-02-28T07:05:20;2.50;99.90
20125;DHT22;10223;50.862;4.360;2023-02-28T07:07:47;2.50;99.90
20125;DHT22;10223;50.862;4.360;2023-02-28T07:10:14;2.80;99.90
20125;DHT22;10223;50.862;4.360;2023-02-28T07:12:42;2.50;99.90
20125;DHT22;10223;50.862;4.360;2023-02-28T07:15:10;2.80;99.90
20125;DHT22;10223;50.862;4.360;2023-02-28T07:17:38;2.90;99.90
20125;DHT22;10223;50.862;4.360;2023-02-28T07:20:06;2.90;99.90
20125;DHT22;10223;50.862;4.360;2023-02-28T07:22:33;3.00;99.90
20125;DHT22;10223;50.862;4.360;2023-02-28T07:25:00;3.10;99.90
20125;DHT22;10223;50.862;4.360;2023-02-28T07:27:27;3.30;99.90
20125;DHT22;10223;50.862;4.360;2023-02-28T07:29:54;3.60;99.90
20125;DHT22;10223;50.862;4.360;2023-02-28T07:32:21;3.50;99.90
20125;DHT22;10223;50.862;4.360;2023-02-28T07:34:49;3.80;99.90
20125;DHT22;10223;50.862;4.360;2023-02-28T07:37:16;4.00;99.90
20125;DHT22;10223;50.862;4.360;2023-02-28T07:39:43;4.20;99.90
20125;DHT22;10223;50.862;4.360;2023-02-28T07:42:10;4.70;99.90
20125;DHT22;10223;50.862;4.360;2023-02-28T07:44:38;5.30;99.90
20125;DHT22;10223;50.862;4.360;2023-02-28T07:47:06;6.00;99.90
20125;DHT22;10223;50.862;4.360;2023-02-28T07:49:34;6.10;99.90
20125;DHT22;10223;50.862;4.360;2023-02-28T07:52:03;6.80;99.90
20125;DHT22;10223;50.862;4.360;2023-02-28T07:54:30;7.40;99.90
20125;DHT22;10223;50.862;4.360;2023-02-28T07:56:57;7.60;99.90
20125;DHT22;10223;50.862;4.360;2023-02-28T07:59:24;7.50;99.90
20125;DHT22;10223;50.862;4.360;2023-02-28T08:01:51;6.90;99.90
20125;DHT22;10223;50.862;4.360;2023-02-28T08:04:18;7.30;99.90
20125;DHT22;10223;50.862;4.360;2023-02-28T08:06:46;7.80;99.90
20125;DHT22;10223;50.862;4.360;2023-02-28T08:09:14;8.30;99.90
20125;DHT22;10223;50.862;4.360;2023-02-28T08:11:41;8.50;99.90
20125;DHT22;10223;50.862;4.360;2023-02-28T08:14:08;8.90;99.90
20125;DHT22;10223;50.862;4.360;2023-02-28T08:16:35;8.60;99.90
20125;DHT22;10223;50.862;4.360;2023-02-28T08:19:02;8.40;99.90
20125;DHT22;10223;50.862;4.360;2023-02-28T08:21:29;8.80;99.90
20125;DHT22;10223;50.862;4.360;2023-02-28T08:23:56;9.10;99.90
20125;DHT22;10223;50.862;4.360;2023-02-28T08:26:24;9.00;99.90
20125;DHT22;10223;50.862;4.360;2023-02-28T08:28:51;8.70;99.90
20125;DHT22;10223;50.862;4.360;2023-02-28T08:31:18;8.40;99.90
20125;DHT22;10223;50.862;4.360;2023-02-28T08:33:45;7.90;99.90
20125;DHT22;10223;50.862;4.360;2023-02-28T08:36:14;7.50;99.90
20125;DHT22;10223;50.862;4.360;2023-02-28T08:38:41;7.80;99.90
20125;DHT22;10223;50.862;4.360;2023-02-28T08:41:10;7.90;99.90
20125;DHT22;10223;50.862;4.360;2023-02-28T08:43:40;8.10;99.90
20125;DHT22;10223;50.862;4.360;2023-02-28T08:46:08;8.60;99.90
20125;DHT22;10223;50.862;4.360;2023-02-28T08:48:36;8.60;99.90
20125;DHT22;10223;50.862;4.360;2023-02-28T08:51:05;8.20;99.90
20125;DHT22;10223;50.862;4.360;2023-02-28T08:53:33;7.90;99.90
20125;DHT22;10223;50.862;4.360;2023-02-28T08:56:01;7.90;99.90
20125;DHT22;10223;50.862;4.360;2023-02-28T08:58:28;8.00;99.90
20125;DHT22;10223;50.862;4.360;2023-02-28T09:00:57;7.90;99.90
20125;DHT22;10223;50.862;4.360;2023-02-28T09:03:24;8.20;99.90
20125;DHT22;10223;50.862;4.360;2023-02-28T09:05:56;8.00;99.90
20125;DHT22;10223;50.862;4.360;2023-02-28T09:08:24;8.20;99.90
20125;DHT22;10223;50.862;4.360;2023-02-28T09:10:51;8.10;99.90
20125;DHT22;10223;50.862;4.360;2023-02-28T09:13:19;8.00;99.90
20125;DHT22;10223;50.862;4.360;2023-02-28T09:15:45;7.90;99.90
20125;DHT22;10223;50.862;4.360;2023-02-28T09:18:14;7.80;99.90
20125;DHT22;10223;50.862;4.360;2023-02-28T09:20:42;8.50;99.90
20125;DHT22;10223;50.862;4.360;2023-02-28T09:23:10;9.10;99.90
20125;DHT22;10223;50.862;4.360;2023-02-28T09:25:38;9.40;99.90
20125;DHT22;10223;50.862;4.360;2023-02-28T09:28:11;9.00;99.90
20125;DHT22;10223;50.862;4.360;2023-02-28T09:30:38;8.00;99.90
20125;DHT22;10223;50.862;4.360;2023-02-28T09:33:05;8.00;99.90
20125;DHT22;10223;50.862;4.360;2023-02-28T09:35:33;7.90;99.90
20125;DHT22;10223;50.862;4.360;2023-02-28T09:38:00;8.20;99.90
20125;DHT22;10223;50.862;4.360;2023-02-28T09:40:28;8.60;99.90
20125;DHT22;10223;50.862;4.360;2023-02-28T09:42:57;8.10;99.90
20125;DHT22;10223;50.862;4.360;2023-02-28T09:45:30;8.50;99.90
20125;DHT22;10223;50.862;4.360;2023-02-28T09:48:01;9.00;99.90
20125;DHT22;10223;50.862;4.360;2023-02-28T09:50:32;9.10;99.90
20125;DHT22;10223;50.862;4.360;2023-02-28T09:53:08;9.30;99.90
20125;DHT22;10223;50.862;4.360;2023-02-28T09:55:40;9.30;99.90
20125;DHT22;10223;50.862;4.360;2023-02-28T09:58:18;9.10;99.90
20125;DHT22;10223;50.862;4.360;2023-02-28T10:00:54;9.40;99.90
20125;DHT22;10223;50.862;4.360;2023-02-28T10:03:28;9.40;99.90
20125;DHT22;10223;50.862;4.360;2023-02-28T10:06:00;9.00;99.90
20125;DHT22;10223;50.862;4.360;2023-02-28T10:08:36;9.30;99.90
20125;DHT22;10223;50.862;4.360;2023-02-28T10:11:09;9.80;99.90
20125;DHT22;10223;50.862;4.360;2023-02-28T10:13:43;9.80;99.90
20125;DHT22;10223;50.862;4.360;2023-02-28T10:16:16;10.00;99.90
20125;DHT22;10223;50.862;4.360;2023-02-28T10:18:47;9.90;99.90
20125;DHT22;10223;50.862;4.360;2023-02-28T10:21:20;9.40;99.90
20125;DHT22;10223;50.862;4.360;2023-02-28T10:23:53;9.10;99.90
20125;DHT22;10223;50.862;4.360;2023-02-28T10:26:24;8.80;99.90
20125;DHT22;10223;50.862;4.360;2023-02-28T10:28:53;9.10;99.90
20125;DHT22;10223;50.862;4.360;2023-02-28T10:31:20;9.20;99.90
20125;DHT22;10223;50.862;4.360;2023-02-28T10:33:47;9.60;99.90
20125;DHT22;10223;50.862;4.360;2023-02-28T10:36:16;9.00;99.90
20125;DHT22;10223;50.862;4.360;2023-02-28T10:38:45;9.00;99.90
20125;DHT22;10223;50.862;4.360;2023-02-28T10:41:15;8.70;98.20
20125;DHT22;10223;50.862;4.360;2023-02-28T10:43:43;8.40;97.90
20125;DHT22;10223;50.862;4.360;2023-02-28T10:46:16;8.60;97.90
20125;DHT22;10223;50.862;4.360;2023-02-28T10:49:01;9.00;98.10
20125;DHT22;10223;50.862;4.360;2023-02-28T10:51:35;9.60;97.70
20125;DHT22;10223;50.862;4.360;2023-02-28T10:54:03;9.50;96.80
20125;DHT22;10223;50.862;4.360;2023-02-28T10:56:32;9.40;96.10
20125;DHT22;10223;50.862;4.360;2023-02-28T10:59:01;9.70;95.80
20125;DHT22;10223;50.862;4.360;2023-02-28T11:01:37;9.30;95.30
20125;DHT22;10223;50.862;4.360;2023-02-28T11:04:17;9.30;96.30
20125;DHT22;10223;50.862;4.360;2023-02-28T11:07:02;9.60;96.30
20125;DHT22;10223;50.862;4.360;2023-02-28T11:09:33;9.40;96.20
20125;DHT22;10223;50.862;4.360;2023-02-28T11:12:00;9.70;96.00
20125;DHT22;10223;50.862;4.360;2023-02-28T11:14:30;10.20;95.30
20125;DHT22;10223;50.862;4.360;2023-02-28T11:17:03;10.20;95.40
20125;DHT22;10223;50.862;4.360;2023-02-28T11:19:40;10.30;95.30
20125;DHT22;10223;50.862;4.360;2023-02-28T11:22:17;10.30;94.80
20125;DHT22;10223;50.862;4.360;2023-02-28T11:24:47;10.20;95.40
20125;DHT22;10223;50.862;4.360;2023-02-28T11:27:42;10.20;95.30
20125;DHT22;10223;50.862;4.360;2023-02-28T11:30:29;10.40;95.30
20125;DHT22;10223;50.862;4.360;2023-02-28T11:32:56;9.90;94.90
20125;DHT22;10223;50.862;4.360;2023-02-28T11:35:26;9.80;95.20
20125;DHT22;10223;50.862;4.360;2023-02-28T11:37:57;10.30;95.40
20125;DHT22;10223;50.862;4.360;2023-02-28T11:40:30;10.30;94.10
20125;DHT22;10223;50.862;4.360;2023-02-28T11:43:05;10.30;94.20
20125;DHT22;10223;50.862;4.360;2023-02-28T11:45:44;10.60;94.30
20125;DHT22;10223;50.862;4.360;2023-02-28T11:48:18;10.80;93.90
20125;DHT22;10223;50.862;4.360;2023-02-28T11:50:55;10.80;93.40
20125;DHT22;10223;50.862;4.360;2023-02-28T11:53:36;11.30;93.40
20125;DHT22;10223;50.862;4.360;2023-02-28T11:56:09;11.00;92.00
20125;DHT22;10223;50.862;4.360;2023-02-28T11:58:46;10.50;93.40
20125;DHT22;10223;50.862;4.360;2023-02-28T12:01:24;10.70;93.40
20125;DHT22;10223;50.862;4.360;2023-02-28T12:04:01;10.90;93.20
20125;DHT22;10223;50.862;4.360;2023-02-28T12:06:36;10.90;92.90
20125;DHT22;10223;50.862;4.360;2023-02-28T12:09:18;10.30;92.90
20125;DHT22;10223;50.862;4.360;2023-02-28T12:11:51;9.70;93.50
20125;DHT22;10223;50.862;4.360;2023-02-28T12:14:30;10.00;94.00
20125;DHT22;10223;50.862;4.360;2023-02-28T12:17:15;9.90;93.50
20125;DHT22;10223;50.862;4.360;2023-02-28T12:19:50;10.40;94.20
20125;DHT22;10223;50.862;4.360;2023-02-28T12:22:31;11.00;93.70
20125;DHT22;10223;50.862;4.360;2023-02-28T12:25:24;11.00;92.60
20125;DHT22;10223;50.862;4.360;2023-02-28T12:27:58;10.80;92.40
20125;DHT22;10223;50.862;4.360;2023-02-28T12:30:28;11.00;92.60
20125;DHT22;10223;50.862;4.360;2023-02-28T12:33:00;10.90;91.70
20125;DHT22;10223;50.862;4.360;2023-02-28T12:35:33;11.10;92.90
20125;DHT22;10223;50.862;4.360;2023-02-28T12:38:05;11.10;91.90
20125;DHT22;10223;50.862;4.360;2023-02-28T12:40:42;11.30;91.30
20125;DHT22;10223;50.862;4.360;2023-02-28T12:43:12;11.70;92.20
20125;DHT22;10223;50.862;4.360;2023-02-28T12:45:43;11.70;91.20
20125;DHT22;10223;50.862;4.360;2023-02-28T12:48:15;11.70;91.60
20125;DHT22;10223;50.862;4.360;2023-02-28T12:50:45;11.80;90.30
20125;DHT22;10223;50.862;4.360;2023-02-28T12:53:18;11.10;90.10
20125;DHT22;10223;50.862;4.360;2023-02-28T12:55:59;10.90;90.20
20125;DHT22;10223;50.862;4.360;2023-02-28T12:58:33;11.30;90.80
20125;DHT22;10223;50.862;4.360;2023-02-28T13:01:23;11.70;90.10
20125;DHT22;10223;50.862;4.360;2023-02-28T13:07:07;11.40;88.80
20125;DHT22;10223;50.862;4.360;2023-02-28T13:09:37;11.60;88.60
20125;DHT22;10223;50.862;4.360;2023-02-28T13:12:14;11.00;89.20
20125;DHT22;10223;50.862;4.360;2023-02-28T13:14:42;11.20;90.10
20125;DHT22;10223;50.862;4.360;2023-02-28T13:17:16;11.40;88.90
20125;DHT22;10223;50.862;4.360;2023-02-28T13:19:46;11.60;88.00
20125;DHT22;10223;50.862;4.360;2023-02-28T13:22:37;11.70;87.30
20125;DHT22;10223;50.862;4.360;2023-02-28T13:34:40;12.00;85.10
20125;DHT22;10223;50.862;4.360;2023-02-28T13:37:34;11.80;84.70
20125;DHT22;10223;50.862;4.360;2023-02-28T13:40:28;11.20;84.60
20125;DHT22;10223;50.862;4.360;2023-02-28T13:42:55;11.70;85.70
20125;DHT22;10223;50.862;4.360;2023-02-28T13:45:24;11.90;86.30
20125;DHT22;10223;50.862;4.360;2023-02-28T13:47:55;12.70;83.80
20125;DHT22;10223;50.862;4.360;2023-02-28T13:50:27;12.20;82.80
20125;DHT22;10223;50.862;4.360;2023-02-28T13:53:23;12.30;83.40
20125;DHT22;10223;50.862;4.360;2023-02-28T13:55:58;12.50;83.10
20125;DHT22;10223;50.862;4.360;2023-02-28T13:58:39;12.50;81.90
20125;DHT22;10223;50.862;4.360;2023-02-28T14:01:22;12.50;81.90
20125;DHT22;10223;50.862;4.360;2023-02-28T14:04:03;13.00;81.00
20125;DHT22;10223;50.862;4.360;2023-02-28T14:06:37;12.70;81.30
20125;DHT22;10223;50.862;4.360;2023-02-28T14:09:15;12.90;80.30
20125;DHT22;10223;50.862;4.360;2023-02-28T14:11:45;12.90;80.00
20125;DHT22;10223;50.862;4.360;2023-02-28T14:14:54;12.40;79.40
20125;DHT22;10223;50.862;4.360;2023-02-28T14:17:22;11.60;80.50
20125;DHT22;10223;50.862;4.360;2023-02-28T14:19:52;10.80;83.10
20125;DHT22;10223;50.862;4.360;2023-02-28T14:22:42;11.50;83.00
20125;DHT22;10223;50.862;4.360;2023-02-28T14:25:18;12.00;82.90
20125;DHT22;10223;50.862;4.360;2023-02-28T14:27:56;12.30;81.20
20125;DHT22;10223;50.862;4.360;2023-02-28T14:30:49;12.10;81.60
20125;DHT22;10223;50.862;4.360;2023-02-28T14:33:23;12.40;81.40
20125;DHT22;10223;50.862;4.360;2023-02-28T14:36:07;12.00;80.70
20125;DHT22;10223;50.862;4.360;2023-02-28T14:38:40;11.60;80.80
20125;DHT22;10223;50.862;4.360;2023-02-28T14:41:21;11.70;81.80
20125;DHT22;10223;50.862;4.360;2023-02-28T14:43:54;11.60;82.00
20125;DHT22;10223;50.862;4.360;2023-02-28T14:46:24;11.70;82.30
20125;DHT22;10223;50.862;4.360;2023-02-28T14:48:52;11.80;81.60
20125;DHT22;10223;50.862;4.360;2023-02-28T14:51:22;11.60;81.60
20125;DHT22;10223;50.862;4.360;2023-02-28T14:53:52;11.50;81.70
20125;DHT22;10223;50.862;4.360;2023-02-28T14:56:24;11.00;83.10
20125;DHT22;10223;50.862;4.360;2023-02-28T14:58:54;11.00;83.40
20125;DHT22;10223;50.862;4.360;2023-02-28T15:01:22;11.20;83.90
20125;DHT22;10223;50.862;4.360;2023-02-28T15:03:57;11.60;83.40
20125;DHT22;10223;50.862;4.360;2023-02-28T15:06:26;11.80;83.70
20125;DHT22;10223;50.862;4.360;2023-02-28T15:09:08;11.80;82.70
20125;DHT22;10223;50.862;4.360;2023-02-28T15:11:37;11.40;82.30
20125;DHT22;10223;50.862;4.360;2023-02-28T15:14:05;11.30;83.70
20125;DHT22;10223;50.862;4.360;2023-02-28T15:16:35;11.40;83.80
20125;DHT22;10223;50.862;4.360;2023-02-28T15:19:06;11.50;83.60
20125;DHT22;10223;50.862;4.360;2023-02-28T15:21:37;12.00;83.40
20125;DHT22;10223;50.862;4.360;2023-02-28T15:24:08;12.00;82.20
20125;DHT22;10223;50.862;4.360;2023-02-28T15:26:40;11.60;82.40
20125;DHT22;10223;50.862;4.360;2023-02-28T15:29:12;11.00;84.70
20125;DHT22;10223;50.862;4.360;2023-02-28T15:31:43;11.00;84.80
20125;DHT22;10223;50.862;4.360;2023-02-28T15:34:18;10.80;85.40
20125;DHT22;10223;50.862;4.360;2023-02-28T15:36:46;10.20;86.40
20125;DHT22;10223;50.862;4.360;2023-02-28T15:39:22;9.40;88.10
20125;DHT22;10223;50.862;4.360;2023-02-28T15:41:49;9.00;89.40
20125;DHT22;10223;50.862;4.360;2023-02-28T15:44:27;8.70;90.00
20125;DHT22;10223;50.862;4.360;2023-02-28T15:46:59;8.60;90.30
20125;DHT22;10223;50.862;4.360;2023-02-28T15:49:28;8.40;90.60
20125;DHT22;10223;50.862;4.360;2023-02-28T15:51:59;8.30;90.90
20125;DHT22;10223;50.862;4.360;2023-02-28T15:54:29;8.00;91.20
20125;DHT22;10223;50.862;4.360;2023-02-28T15:57:00;8.10;91.60
20125;DHT22;10223;50.862;4.360;2023-02-28T15:59:29;8.00;91.90
20125;DHT22;10223;50.862;4.360;2023-02-28T16:02:13;7.80;92.40
20125;DHT22;10223;50.862;4.360;2023-02-28T16:04:57;7.70;92.50
20125;DHT22;10223;50.862;4.360;2023-02-28T16:07:26;7.70;92.70
20125;DHT22;10223;50.862;4.360;2023-02-28T16:09:54;7.80;92.80
20125;DHT22;10223;50.862;4.360;2023-02-28T16:12:25;7.80;92.80
20125;DHT22;10223;50.862;4.360;2023-02-28T16:14:54;7.90;93.00
20125;DHT22;10223;50.862;4.360;2023-02-28T16:17:24;7.60;93.60
20125;DHT22;10223;50.862;4.360;2023-02-28T16:19:51;7.50;93.40
20125;DHT22;10223;50.862;4.360;2023-02-28T16:22:18;7.40;93.60
20125;DHT22;10223;50.862;4.360;2023-02-28T16:24:47;7.40;94.20
20125;DHT22;10223;50.862;4.360;2023-02-28T16:27:18;7.10;94.60